createdAt,value
2022-12-03T00:02:26.437Z,13.20
2022-12-03T00:04:53.184Z,14.93
2022-12-03T00:07:19.694Z,12.18
2022-12-03T00:09:46.087Z,11.60
2022-12-03T00:12:12.419Z,13.77
2022-12-03T00:14:43.025Z,13.15
2022-12-03T00:17:10.923Z,13.25
2022-12-03T00:19:37.246Z,12.90
2022-12-03T00:22:03.564Z,13.63
2022-12-03T00:24:29.865Z,13.75
2022-12-03T00:26:56.665Z,13.75
2022-12-03T00:29:22.958Z,10.95
2022-12-03T00:31:49.303Z,12.45
2022-12-03T00:34:15.649Z,13.82
2022-12-03T00:36:41.999Z,12.90
2022-12-03T00:39:08.318Z,13.27
2022-12-03T00:41:34.687Z,14.07
2022-12-03T00:44:01.046Z,13.07
2022-12-03T00:46:27.462Z,13.05
2022-12-03T00:48:53.814Z,13.63
2022-12-03T00:51:20.147Z,14.23
2022-12-03T00:53:46.507Z,14.50
2022-12-03T00:56:12.830Z,14.30
2022-12-03T00:58:39.155Z,13.05
2022-12-03T01:01:05.553Z,13.88
2022-12-03T01:03:31.880Z,12.98
2022-12-03T01:05:58.206Z,12.75
2022-12-03T01:08:24.519Z,14.65
2022-12-03T01:10:50.917Z,13.88
2022-12-03T01:13:17.348Z,14.43
2022-12-03T01:15:43.770Z,14.88
2022-12-03T01:18:10.084Z,13.05
2022-12-03T01:20:36.556Z,13.15
2022-12-03T01:23:02.876Z,14.88
2022-12-03T01:25:29.190Z,13.70
2022-12-03T01:27:55.512Z,13.13
2022-12-03T01:30:21.912Z,12.50
2022-12-03T01:32:48.203Z,13.43
2022-12-03T01:35:14.559Z,12.45
2022-12-03T01:37:40.850Z,14.43
2022-12-03T01:40:07.803Z,13.25
2022-12-03T01:42:36.610Z,12.85
2022-12-03T01:45:03.577Z,14.30
2022-12-03T01:47:31.140Z,13.35
2022-12-03T01:50:02.746Z,14.57
2022-12-03T01:52:31.397Z,13.45
2022-12-03T01:54:59.119Z,14.70
2022-12-03T01:57:26.990Z,15.07
2022-12-03T01:59:54.079Z,14.75
2022-12-03T02:02:23.339Z,14.15
2022-12-03T02:04:50.319Z,14.93
2022-12-03T02:07:17.862Z,14.60
2022-12-03T02:09:44.172Z,14.10
2022-12-03T02:12:10.870Z,12.52
2022-12-03T02:14:40.257Z,13.82
2022-12-03T02:17:07.087Z,14.85
2022-12-03T02:19:34.460Z,14.65
2022-12-03T02:22:21.003Z,13.95
2022-12-03T02:24:53.309Z,12.90
2022-12-03T02:27:19.880Z,14.43
2022-12-03T02:29:46.208Z,14.68
2022-12-03T02:32:12.514Z,14.90
2022-12-03T02:34:42.862Z,13.55
2022-12-03T02:37:11.584Z,14.50
2022-12-03T02:39:40.019Z,13.63
2022-12-03T02:42:25.087Z,13.85
2022-12-03T02:44:51.806Z,14.38
2022-12-03T02:47:18.816Z,15.20
2022-12-03T02:49:45.249Z,12.88
2022-12-03T02:52:11.649Z,15.25
2022-12-03T02:54:38.127Z,14.88
2022-12-03T02:57:04.703Z,13.05
2022-12-03T02:59:31.112Z,13.82
2022-12-03T03:01:57.568Z,13.02
2022-12-03T03:04:24.848Z,13.40
2022-12-03T03:06:51.863Z,13.88
2022-12-03T03:09:18.927Z,14.60
2022-12-03T03:11:45.266Z,14.82
2022-12-03T03:14:11.702Z,14.27
2022-12-03T03:16:38.222Z,14.07
2022-12-03T03:19:04.645Z,13.45
2022-12-03T03:21:30.986Z,14.10
2022-12-03T03:23:57.314Z,14.38
2022-12-03T03:26:23.690Z,14.13
2022-12-03T03:28:51.107Z,13.65
2022-12-03T03:31:19.085Z,13.98
2022-12-03T03:33:46.902Z,14.77
2022-12-03T03:36:14.042Z,12.68
2022-12-03T03:38:40.504Z,14.38
2022-12-03T03:41:08.039Z,13.98
2022-12-03T03:43:35.004Z,12.73
2022-12-03T03:46:03.309Z,13.55
2022-12-03T03:48:29.666Z,12.90
2022-12-03T03:50:56.260Z,13.30
2022-12-03T03:53:23.039Z,13.98
2022-12-03T03:55:49.714Z,12.63
2022-12-03T03:58:16.203Z,13.30
2022-12-03T04:00:43.920Z,13.85
2022-12-03T04:03:10.861Z,12.40
2022-12-03T04:05:37.263Z,14.15
2022-12-03T04:08:03.779Z,14.80
2022-12-03T04:10:48.943Z,13.52
2022-12-03T04:13:15.274Z,12.65
2022-12-03T04:15:41.726Z,14.70
2022-12-03T04:18:26.506Z,13.50
2022-12-03T04:21:12.788Z,13.35
2022-12-03T04:26:24.176Z,13.23
2022-12-03T04:28:50.480Z,14.18
2022-12-03T04:31:35.253Z,13.38
2022-12-03T04:34:20.354Z,12.70
2022-12-03T04:36:47.427Z,13.35
2022-12-03T04:39:13.878Z,14.48
2022-12-03T04:41:40.295Z,14.00
2022-12-03T04:44:25.181Z,14.32
2022-12-03T04:46:51.488Z,13.05
2022-12-03T04:49:17.792Z,13.48
2022-12-03T04:51:44.188Z,14.25
2022-12-03T04:54:10.506Z,15.68
2022-12-03T04:56:36.903Z,13.60
2022-12-03T04:59:03.427Z,13.85
2022-12-03T05:01:29.855Z,12.23
2022-12-03T05:03:56.249Z,13.85
2022-12-03T05:06:22.651Z,15.98
2022-12-03T05:08:49.011Z,16.02
2022-12-03T05:11:15.558Z,16.15
2022-12-03T05:13:43.120Z,15.55
2022-12-03T05:16:09.654Z,13.90
2022-12-03T05:18:36.037Z,15.90
2022-12-03T05:21:02.318Z,15.82
2022-12-03T05:23:28.616Z,14.70
2022-12-03T05:25:54.911Z,14.82
2022-12-03T05:28:23.119Z,16.08
2022-12-03T05:30:49.584Z,16.02
2022-12-03T05:33:16.077Z,15.73
2022-12-03T05:35:42.377Z,14.95
2022-12-03T05:38:08.686Z,15.32
2022-12-03T05:40:35.055Z,15.32
2022-12-03T05:43:01.793Z,13.43
2022-12-03T05:45:32.586Z,14.32
2022-12-03T05:47:59.574Z,15.68
2022-12-03T05:50:27.352Z,15.93
2022-12-03T05:52:53.741Z,16.10
2022-12-03T05:55:20.094Z,15.38
2022-12-03T05:57:46.872Z,16.33
2022-12-03T06:00:18.042Z,14.82
2022-12-03T06:02:44.854Z,14.98
2022-12-03T06:05:12.024Z,15.82
2022-12-03T06:07:38.585Z,13.95
2022-12-03T06:10:05.842Z,14.90
2022-12-03T06:12:32.369Z,16.30
2022-12-03T06:14:59.569Z,15.77
2022-12-03T06:17:26.286Z,15.80
2022-12-03T06:19:52.935Z,15.43
2022-12-03T06:22:19.621Z,16.15
2022-12-03T06:24:45.991Z,16.02
2022-12-03T06:27:12.692Z,14.70
2022-12-03T06:29:38.986Z,15.20
2022-12-03T06:32:06.002Z,15.85
2022-12-03T06:34:32.378Z,15.93
2022-12-03T06:36:58.826Z,15.07
2022-12-03T06:39:25.154Z,15.77
2022-12-03T06:41:51.479Z,15.18
2022-12-03T06:44:17.905Z,16.05
2022-12-03T06:46:44.367Z,16.17
2022-12-03T06:49:10.795Z,14.93
2022-12-03T06:51:37.228Z,14.50
2022-12-03T06:54:03.791Z,15.40
2022-12-03T06:56:35.813Z,15.05
2022-12-03T06:59:04.278Z,16.23
2022-12-03T07:01:30.634Z,16.17
2022-12-03T07:03:56.988Z,15.27
2022-12-03T07:06:23.309Z,16.52
2022-12-03T07:08:49.615Z,15.68
2022-12-03T07:11:39.956Z,14.85
2022-12-03T07:14:07.867Z,14.85
2022-12-03T07:16:37.557Z,13.75
2022-12-03T07:19:04.844Z,14.13
2022-12-03T07:21:31.401Z,13.43
2022-12-03T07:23:57.893Z,13.23
2022-12-03T07:26:24.235Z,14.65
2022-12-03T07:28:50.542Z,12.35
2022-12-03T07:31:17.010Z,13.68
2022-12-03T07:33:43.505Z,14.57
2022-12-03T07:36:10.070Z,14.27
2022-12-03T07:38:36.394Z,14.45
2022-12-03T07:41:02.740Z,14.65
2022-12-03T07:43:29.048Z,15.02
2022-12-03T07:45:55.334Z,14.57
2022-12-03T07:48:21.642Z,15.13
2022-12-03T07:50:47.943Z,16.27
2022-12-03T07:53:14.250Z,15.45
2022-12-03T07:55:40.903Z,15.70
2022-12-03T07:58:07.316Z,16.10
2022-12-03T08:00:33.645Z,16.20
2022-12-03T08:03:00.030Z,15.65
2022-12-03T08:05:26.901Z,16.40
2022-12-03T08:07:53.272Z,15.73
2022-12-03T08:10:19.677Z,15.38
2022-12-03T08:12:46.534Z,16.48
2022-12-03T08:15:14.434Z,16.52
2022-12-03T08:17:42.328Z,16.15
2022-12-03T08:20:12.769Z,16.55
2022-12-03T08:22:39.195Z,17.42
2022-12-03T08:25:25.855Z,17.83
2022-12-03T08:27:53.852Z,17.60
2022-12-03T08:30:20.371Z,17.70
2022-12-03T08:32:47.138Z,16.70
2022-12-03T08:35:14.571Z,17.00
2022-12-03T08:37:41.087Z,17.98
2022-12-03T08:40:21.728Z,16.42
2022-12-03T08:42:48.195Z,16.48
2022-12-03T08:45:30.257Z,18.50
2022-12-03T08:47:57.620Z,17.35
2022-12-03T08:50:31.188Z,16.83
2022-12-03T08:53:16.154Z,18.02
2022-12-03T08:55:45.958Z,17.10
2022-12-03T08:58:19.384Z,18.00
2022-12-03T09:00:46.008Z,17.98
2022-12-03T09:03:16.562Z,17.13
2022-12-03T09:05:42.881Z,19.90
2022-12-03T09:08:09.243Z,18.33
2022-12-03T09:10:35.964Z,18.42
2022-12-03T09:13:02.261Z,18.27
2022-12-03T09:15:28.589Z,16.90
2022-12-03T09:17:54.932Z,17.30
2022-12-03T09:20:21.323Z,17.73
2022-12-03T09:22:47.714Z,16.83
2022-12-03T09:25:14.218Z,17.17
2022-12-03T09:27:40.535Z,16.33
2022-12-03T09:30:07.145Z,16.77
2022-12-03T09:32:33.591Z,17.20
2022-12-03T09:34:59.949Z,16.65
2022-12-03T09:37:26.252Z,17.73
2022-12-03T09:39:52.543Z,15.88
2022-12-03T09:42:18.936Z,15.98
2022-12-03T09:44:45.366Z,16.63
2022-12-03T09:47:11.676Z,17.20
2022-12-03T09:49:38.739Z,15.90
2022-12-03T09:52:05.789Z,15.32
2022-12-03T09:54:32.984Z,16.85
2022-12-03T09:57:00.819Z,16.25
2022-12-03T09:59:29.596Z,15.60
2022-12-03T10:01:56.056Z,16.08
2022-12-03T10:04:22.658Z,14.23
2022-12-03T10:06:49.119Z,15.88
2022-12-03T10:09:20.790Z,15.18
2022-12-03T10:11:47.235Z,15.25
2022-12-03T10:14:14.610Z,16.25
2022-12-03T10:16:41.370Z,15.65
2022-12-03T10:19:11.502Z,14.95
2022-12-03T10:21:38.427Z,14.88
2022-12-03T10:24:17.049Z,14.80
2022-12-03T10:26:44.264Z,15.10
2022-12-03T10:29:14.768Z,15.30
2022-12-03T10:31:41.055Z,14.60
2022-12-03T10:34:08.654Z,15.15
2022-12-03T10:36:35.039Z,15.95
2022-12-03T10:39:12.238Z,17.65
2022-12-03T10:41:38.800Z,16.85
2022-12-03T10:44:25.548Z,15.52
2022-12-03T10:47:05.996Z,15.57
2022-12-03T10:49:32.939Z,15.95
2022-12-03T10:51:59.312Z,17.73
2022-12-03T10:54:26.098Z,19.33
2022-12-03T10:56:52.586Z,18.60
2022-12-03T10:59:23.349Z,19.38
2022-12-03T11:01:50.155Z,19.58
2022-12-03T11:04:21.146Z,19.60
2022-12-03T11:06:47.495Z,19.50
2022-12-03T11:09:16.865Z,18.38
2022-12-03T11:11:43.213Z,19.73
2022-12-03T11:14:10.346Z,18.30
2022-12-03T11:16:39.512Z,20.13
2022-12-03T11:19:14.027Z,17.58
2022-12-03T11:21:59.011Z,18.40
2022-12-03T11:24:25.314Z,19.25
2022-12-03T11:26:51.604Z,18.38
2022-12-03T11:29:37.895Z,20.13
2022-12-03T11:34:31.414Z,18.63
2022-12-03T11:37:10.046Z,19.70
2022-12-03T11:39:45.504Z,20.65
2022-12-03T11:42:25.277Z,18.33
2022-12-03T11:45:03.978Z,18.88
2022-12-03T11:47:36.546Z,19.88
2022-12-03T11:50:15.710Z,18.67
2022-12-03T11:52:42.942Z,19.90
2022-12-03T11:55:24.357Z,18.80
2022-12-03T11:57:56.923Z,18.23
2022-12-03T12:00:23.964Z,15.38
2022-12-03T12:02:51.747Z,22.45
2022-12-03T12:05:23.554Z,19.75
2022-12-03T12:07:50.200Z,20.63
2022-12-03T12:10:35.310Z,20.38
2022-12-03T12:13:01.706Z,19.45
2022-12-03T12:15:41.335Z,17.48
2022-12-03T12:18:26.471Z,17.10
2022-12-03T12:20:52.775Z,18.48
2022-12-03T12:23:27.660Z,18.25
2022-12-03T12:26:05.106Z,19.70
2022-12-03T12:28:31.398Z,17.52
2022-12-03T12:30:57.784Z,17.30
2022-12-03T12:33:24.510Z,17.83
2022-12-03T12:35:51.129Z,17.58
2022-12-03T12:38:20.925Z,17.85
2022-12-03T12:40:49.238Z,17.98
2022-12-03T12:43:20.330Z,16.33
2022-12-03T12:45:50.530Z,19.55
2022-12-03T12:48:19.906Z,18.25
2022-12-03T12:50:47.009Z,19.08
2022-12-03T12:53:27.194Z,17.55
2022-12-03T12:55:55.138Z,18.33
2022-12-03T12:58:21.664Z,15.85
2022-12-03T13:00:50.171Z,17.13
2022-12-03T13:03:17.861Z,16.38
2022-12-03T13:05:46.255Z,17.05
2022-12-03T13:08:15.438Z,16.52
2022-12-03T13:10:42.459Z,17.52
2022-12-03T13:13:23.228Z,16.90
2022-12-03T13:16:07.134Z,15.52
2022-12-03T13:18:38.599Z,17.38
2022-12-03T13:21:25.022Z,18.25
2022-12-03T13:23:53.080Z,15.02
2022-12-03T13:26:34.218Z,17.48
2022-12-03T13:29:11.939Z,18.38
2022-12-03T13:31:43.538Z,18.58
2022-12-03T13:34:20.290Z,17.58
2022-12-03T13:36:52.032Z,15.75
2022-12-03T13:39:26.411Z,17.23
2022-12-03T13:42:11.205Z,17.08
2022-12-03T13:44:41.690Z,17.88
2022-12-03T13:47:15.895Z,17.50
2022-12-03T13:49:44.358Z,17.40
2022-12-03T13:52:15.978Z,17.05
2022-12-03T13:54:42.326Z,18.70
2022-12-03T13:57:08.665Z,18.65
2022-12-03T13:59:35.094Z,19.48
2022-12-03T14:02:01.486Z,18.83
2022-12-03T14:04:27.857Z,17.35
2022-12-03T14:06:54.164Z,17.35
2022-12-03T14:09:20.482Z,16.90
2022-12-03T14:12:05.547Z,17.05
2022-12-03T14:14:31.903Z,17.20
2022-12-03T14:17:00.017Z,16.63
2022-12-03T14:19:26.671Z,16.65
2022-12-03T14:21:52.977Z,16.95
2022-12-03T14:24:19.328Z,17.65
2022-12-03T14:26:45.620Z,16.23
2022-12-03T14:29:11.938Z,16.77
2022-12-03T14:31:38.290Z,17.70
2022-12-03T14:34:04.694Z,16.77
2022-12-03T14:36:31.013Z,15.35
2022-12-03T14:38:57.342Z,16.52
2022-12-03T14:41:42.214Z,16.85
2022-12-03T14:44:08.502Z,16.33
2022-12-03T14:46:34.809Z,17.27
2022-12-03T14:49:01.226Z,17.00
2022-12-03T14:51:27.578Z,20.58
2022-12-03T14:53:53.861Z,18.08
2022-12-03T14:56:20.293Z,17.05
2022-12-03T14:58:46.676Z,20.13
2022-12-03T15:01:13.075Z,19.45
2022-12-03T15:03:39.454Z,20.13
2022-12-03T15:06:05.829Z,18.15
2022-12-03T15:08:32.149Z,19.00
2022-12-03T15:10:58.544Z,19.35
2022-12-03T15:13:24.840Z,17.52
2022-12-03T15:15:51.129Z,20.52
2022-12-03T15:18:17.503Z,21.58
2022-12-03T15:20:43.827Z,21.52
2022-12-03T15:23:14.234Z,20.17
2022-12-03T15:25:41.082Z,21.80
2022-12-03T15:28:07.445Z,21.48
2022-12-03T15:30:35.797Z,20.85
2022-12-03T15:33:02.682Z,20.73
2022-12-03T15:35:32.202Z,21.52
2022-12-03T15:37:58.634Z,21.02
2022-12-03T15:40:25.319Z,21.23
2022-12-03T15:42:51.754Z,20.02
2022-12-03T15:45:18.209Z,19.25
2022-12-03T15:47:44.697Z,20.40
2022-12-03T15:50:12.181Z,20.48
2022-12-03T15:52:38.581Z,19.25
2022-12-03T15:55:05.025Z,20.17
2022-12-03T15:57:31.407Z,18.73
2022-12-03T15:59:57.794Z,19.60
2022-12-03T16:02:24.226Z,19.90
2022-12-03T16:04:50.584Z,20.48
2022-12-03T16:07:16.885Z,19.58
2022-12-03T16:09:43.168Z,19.92
2022-12-03T16:12:09.494Z,18.98
2022-12-03T16:14:35.924Z,18.95
2022-12-03T16:17:02.635Z,18.80
2022-12-03T16:19:29.016Z,18.50
2022-12-03T16:21:55.323Z,18.60
2022-12-03T16:24:21.659Z,18.02
2022-12-03T16:26:47.947Z,16.88
2022-12-03T16:29:15.039Z,16.02
2022-12-03T16:31:41.571Z,17.27
2022-12-03T16:34:07.928Z,17.92
2022-12-03T16:36:34.311Z,16.38
2022-12-03T16:39:00.719Z,16.63
2022-12-03T16:41:27.039Z,16.67
2022-12-03T16:43:53.398Z,16.02
2022-12-03T16:46:26.085Z,14.80
2022-12-03T16:48:55.210Z,14.00
2022-12-03T16:51:21.730Z,15.00
2022-12-03T16:53:48.425Z,15.63
2022-12-03T16:56:14.780Z,15.25
2022-12-03T16:58:41.359Z,13.05
2022-12-03T17:01:07.774Z,15.23
2022-12-03T17:03:34.404Z,16.30
2022-12-03T17:06:00.825Z,16.23
2022-12-03T17:08:27.198Z,16.13
2022-12-03T17:10:53.695Z,15.43
2022-12-03T17:13:20.126Z,14.60
2022-12-03T17:15:46.523Z,17.02
2022-12-03T17:18:12.859Z,16.67
2022-12-03T17:20:39.201Z,16.45
2022-12-03T17:23:05.528Z,14.25
2022-12-03T17:25:31.824Z,15.73
2022-12-03T17:27:58.146Z,16.90
2022-12-03T17:30:24.555Z,17.40
2022-12-03T17:32:50.877Z,17.70
2022-12-03T17:35:17.769Z,17.00
2022-12-03T17:37:44.093Z,18.83
2022-12-03T17:40:11.777Z,18.70
2022-12-03T17:42:38.139Z,17.55
2022-12-03T17:45:04.739Z,18.25
2022-12-03T17:47:31.038Z,18.67
2022-12-03T17:49:57.627Z,16.77
2022-12-03T17:52:24.395Z,19.77
2022-12-03T18:00:03.702Z,18.90
2022-12-03T18:02:30.035Z,18.67
2022-12-03T18:04:56.452Z,18.58
2022-12-03T18:07:22.722Z,17.50
2022-12-03T18:09:49.102Z,18.23
2022-12-03T18:12:15.416Z,20.45
2022-12-03T18:14:41.730Z,20.15
2022-12-03T18:17:08.101Z,20.60
2022-12-03T18:19:34.418Z,20.02
2022-12-03T18:22:00.722Z,19.42
2022-12-03T18:24:27.260Z,18.92
2022-12-03T18:26:53.651Z,20.55
2022-12-03T18:29:19.970Z,18.65
2022-12-03T18:31:46.371Z,21.00
2022-12-03T18:34:12.867Z,20.63
2022-12-03T18:36:39.234Z,20.48
2022-12-03T18:39:08.334Z,21.23
2022-12-03T18:41:34.966Z,18.27
2022-12-03T18:44:02.819Z,19.75
2022-12-03T18:46:52.327Z,19.52
2022-12-03T18:51:41.794Z,18.75
2022-12-03T18:54:14.364Z,21.73
2022-12-03T18:56:41.255Z,20.60
2022-12-03T18:59:07.746Z,20.45
2022-12-03T19:01:34.438Z,19.67
2022-12-03T19:04:01.059Z,22.05
2022-12-03T19:06:29.168Z,20.08
2022-12-03T19:08:55.503Z,19.85
2022-12-03T19:11:22.267Z,23.10
2022-12-03T19:13:48.575Z,21.08
2022-12-03T19:16:17.067Z,21.95
2022-12-03T19:18:43.669Z,21.52
2022-12-03T19:21:10.923Z,22.95
2022-12-03T19:23:37.492Z,20.45
2022-12-03T19:26:04.939Z,22.20
2022-12-03T19:28:31.793Z,22.80
2022-12-03T19:31:09.097Z,21.83
2022-12-03T19:33:35.579Z,22.85
2022-12-03T19:36:02.732Z,23.60
2022-12-03T19:38:29.999Z,22.80
2022-12-03T19:41:00.371Z,22.50
2022-12-03T19:43:26.822Z,23.33
2022-12-03T19:45:54.430Z,23.13
2022-12-03T19:48:22.584Z,24.23
2022-12-03T19:50:58.334Z,21.77
2022-12-03T19:53:36.829Z,23.08
2022-12-03T19:56:12.906Z,23.40
2022-12-03T19:58:40.162Z,22.70
2022-12-03T20:01:07.786Z,23.48
2022-12-03T20:03:34.754Z,21.52
2022-12-03T20:06:02.139Z,23.52
2022-12-03T20:08:28.552Z,22.08
2022-12-03T20:10:54.874Z,22.95
2022-12-03T20:13:21.375Z,23.10
2022-12-03T20:15:47.669Z,21.92
2022-12-03T20:18:14.013Z,24.17
2022-12-03T20:20:40.320Z,22.98
2022-12-03T20:23:06.622Z,23.02
2022-12-03T20:25:37.909Z,23.42
2022-12-03T20:28:04.362Z,23.55
2022-12-03T20:30:30.684Z,22.63
2022-12-03T20:32:57.003Z,23.05
2022-12-03T20:35:23.328Z,23.80
2022-12-03T20:37:49.639Z,22.92
2022-12-03T20:40:16.053Z,24.00
2022-12-03T20:42:46.242Z,22.15
2022-12-03T20:45:12.542Z,23.83
2022-12-03T20:47:38.826Z,22.75
2022-12-03T20:50:05.528Z,21.08
2022-12-03T20:52:32.021Z,21.60
2022-12-03T20:54:58.338Z,22.58
2022-12-03T20:57:24.648Z,23.17
2022-12-03T20:59:51.029Z,22.13
2022-12-03T21:02:17.578Z,20.98
2022-12-03T21:04:43.984Z,23.27
2022-12-03T21:07:10.392Z,22.20
2022-12-03T21:09:36.835Z,22.90
2022-12-03T21:12:03.243Z,22.35
2022-12-03T21:14:29.668Z,18.42
2022-12-03T21:17:11.965Z,22.42
2022-12-03T21:19:38.747Z,23.10
2022-12-03T21:22:05.657Z,21.52
2022-12-03T21:24:33.143Z,22.60
2022-12-03T21:26:59.452Z,21.63
2022-12-03T21:29:25.786Z,21.75
2022-12-03T21:31:52.233Z,23.05
2022-12-03T21:34:18.678Z,21.30
2022-12-03T21:36:46.159Z,22.15
2022-12-03T21:39:12.550Z,22.33
2022-12-03T21:41:38.953Z,21.30
2022-12-03T21:44:05.442Z,20.75
2022-12-03T21:47:11.512Z,22.92
2022-12-03T21:51:46.360Z,21.90
2022-12-03T21:54:12.815Z,22.58
2022-12-03T21:56:39.195Z,22.98
2022-12-03T21:59:05.521Z,22.23
2022-12-03T22:01:31.947Z,22.35
2022-12-03T22:03:58.324Z,21.60
2022-12-03T22:06:24.809Z,21.10
2022-12-03T22:08:51.122Z,22.02
2022-12-03T22:11:21.478Z,22.13
2022-12-03T22:13:48.036Z,22.15
2022-12-03T22:16:15.798Z,22.05
2022-12-03T22:18:42.640Z,24.05
2022-12-03T22:21:10.403Z,21.40
2022-12-03T22:23:36.891Z,22.33
2022-12-03T22:26:07.788Z,22.55
2022-12-03T22:28:34.453Z,23.30
2022-12-03T22:31:05.246Z,21.52
2022-12-03T22:33:31.614Z,22.25
2022-12-03T22:35:58.987Z,23.02
2022-12-03T22:38:25.357Z,23.08
2022-12-03T22:40:51.821Z,22.92
2022-12-03T22:43:18.428Z,23.00
2022-12-03T22:45:44.719Z,22.42
2022-12-03T22:48:11.124Z,24.38
2022-12-03T22:50:41.450Z,21.45
2022-12-03T22:53:07.723Z,24.23
2022-12-03T22:55:34.005Z,23.25
2022-12-03T22:58:00.390Z,22.27
2022-12-03T23:00:29.248Z,22.40
2022-12-03T23:02:55.649Z,23.40
2022-12-03T23:05:22.018Z,22.63
2022-12-03T23:07:48.367Z,23.00
2022-12-03T23:10:14.899Z,21.75
2022-12-03T23:12:41.292Z,21.48
2022-12-03T23:15:08.403Z,22.65
2022-12-03T23:17:34.701Z,23.48
2022-12-03T23:20:00.993Z,24.17
2022-12-03T23:22:27.306Z,21.95
2022-12-03T23:24:53.690Z,22.48
2022-12-03T23:27:20.007Z,22.95
2022-12-03T23:29:46.693Z,21.80
2022-12-03T23:32:13.366Z,20.73
2022-12-03T23:34:39.715Z,22.80
2022-12-03T23:37:06.156Z,21.45
2022-12-03T23:39:32.438Z,22.35
2022-12-03T23:41:58.823Z,23.77
2022-12-03T23:44:26.837Z,22.52
2022-12-03T23:46:53.215Z,22.05
2022-12-03T23:49:19.616Z,22.38
2022-12-03T23:51:45.934Z,23.38
2022-12-03T23:54:12.301Z,22.17
2022-12-03T23:56:39.451Z,22.13
2022-12-03T23:59:05.790Z,22.25
